Have a Safe July 4th! 

Flight Track Log - Related Links

Times and Time Zones

All times are in EDT time to prevent confusion due to time zone crossing. See the N207TB flight status page for this flight to view local times or setup timezone preferences in your user account.

Time Position Orientation Groundspeed Altitude Reporting Facility
EDT Latitude Longitude Course Direction KTS MPH feet Rate Location/Type
Fri 06:45:06 AM 26.1925 -81.8103 North 91 105 2,300  Level Miami Center
Fri 06:46:07 AM 26.2200 -81.8142 353° North 96 110 2,800 443 Climbing Miami Center
Fri 06:47:08 AM 26.2567 -81.8178 355° North 127 146 3,200 397 Climbing Miami Center
Fri 06:48:08 AM 26.2969 -81.8219 355° North 129 148 3,600 397 Climbing Miami Center
Fri 06:49:00 AM 26.4239 -81.8000 North  Level FlightAware Approximate
Fri 06:49:09 AM 26.3353 -81.8264 354° North 137 158 4,000  Level Miami Center
Fri 06:50:00 AM 26.4699 -81.8000 North  Level FlightAware Approximate
Fri 06:50:10 AM 26.3753 -81.8308 354° North 141 162 4,200  Level Miami Center
Fri 06:51:10 AM 26.4169 -81.8356 354° North 149 171 4,600 545 Climbing Miami Center
Fri 06:52:11 AM 26.4608 -81.8406 354° North 151 174 5,300 639 Climbing Miami Center
Fri 06:53:12 AM 26.5017 -81.8447 355° North 150 173 5,900 541 Climbing Miami Center
Fri 06:54:13 AM 26.5419 -81.8503 353° North 149 171 6,400 496 Climbing Miami Center
Fri 06:55:13 AM 26.5825 -81.8533 356° North 148 170 6,900 545 Climbing Miami Center
Fri 06:56:14 AM 26.6239 -81.8581 354° North 149 171 7,500 541 Climbing Miami Center
Fri 06:57:15 AM 26.6703 -81.8642 353° North 151 174 8,000 541 Climbing Miami Center
Fri 06:58:16 AM 26.7125 -81.8689 354° North 153 176 8,600 595 Climbing Miami Center
Fri 06:59:16 AM 26.7556 -81.8736 354° North 155 178 9,200 545 Climbing Miami Center
Fri 07:00:17 AM 26.7961 -81.8783 354° North 153 176 9,700 443 Climbing Miami Center
Fri 07:01:18 AM 26.8436 -81.8833 355° North 155 178 10,100 443 Climbing Miami Center
Fri 07:02:19 AM 26.8892 -81.8892 353° North 162 186 10,600 496 Climbing Miami Center
Fri 07:03:19 AM 26.9342 -81.8939 355° North 163 188 11,100 496 Climbing Miami Center
Fri 07:04:20 AM 26.9808 -81.8992 354° North 166 191 11,600 393 Climbing Miami Center
Fri 07:05:21 AM 27.0261 -81.9042 354° North 171 197 11,900 344 Climbing Miami Center
Fri 07:06:22 AM 27.0739 -81.9100 354° North 174 200 12,300 295 Climbing Miami Center
Fri 07:07:23 AM 27.1225 -81.9153 354° North 174 200 12,500 198 Climbing Miami Center
Fri 07:08:23 AM 27.1725 -81.9206 355° North 176 203 12,700 198 Climbing Miami Center
Fri 07:09:24 AM 27.2228 -81.9272 353° North 182 209 12,900 246 Climbing Miami Center
Fri 07:10:25 AM 27.2833 -81.9339 354° North 182 209 13,200 246 Climbing Miami Center
Fri 07:11:26 AM 27.3356 -81.9394 355° North 183 211 13,400 197 Climbing Miami Center
Fri 07:12:27 AM 27.3867 -81.9456 354° North 185 213 13,600 197 Climbing Miami Center
Fri 07:13:28 AM 27.4383 -81.9514 354° North 185 213 13,800 148 Climbing Miami Center
Fri 07:14:29 AM 27.4894 -81.9569 354° North 186 214 13,900 99 Climbing Miami Center
Fri 07:15:29 AM 27.5425 -81.9631 354° North 189 217 14,000 50 Climbing Miami Center
Fri 07:16:30 AM 27.5958 -81.9692 354° North 192 221 14,000  Level Miami Center
Fri 07:17:31 AM 27.6486 -81.9750 354° North 192 221 14,000  Level Miami Center
Fri 07:18:32 AM 27.7058 -81.9817 354° North 190 219 14,000  Level Miami Center
Fri 07:19:33 AM 27.7608 -81.9881 354° North 191 220 14,000 -49 Level Miami Center
Fri 07:20:34 AM 27.8122 -81.9939 354° North 189 217 13,900 -49 Descending Miami Center
Fri 07:21:35 AM 27.8644 -82.0000 354° North 189 217 13,900  Level Miami Center
Fri 07:22:36 AM 27.9158 -82.0061 354° North 187 215 13,900  Level Miami Center
Fri 07:23:37 AM 27.9689 -82.0119 354° North 188 216 13,900  Level Miami Center
Fri 07:24:38 AM 28.0142 -82.0322 338° Northwest 173 199 13,900  Level Miami Center
Fri 07:25:39 AM 28.0578 -82.0589 332° Northwest 175 201 13,900  Level Miami Center
Fri 07:26:40 AM 28.1017 -82.0875 330° Northwest 179 206 13,900  Level Miami Center
Fri 07:27:45 AM 28.1539 -82.1228 329° Northwest 179 206 13,900  Level Jacksonville Center
Fri 07:28:45 AM 28.1958 -82.1483 332° Northwest 179 206 13,900  Level Jacksonville Center
Fri 07:29:45 AM 28.2397 -82.1739 333° Northwest 179 206 13,900  Level Jacksonville Center
Fri 07:30:45 AM 28.2858 -82.2042 330° Northwest 179 206 13,900  Level Jacksonville Center
Fri 07:31:45 AM 28.3278 -82.2322 330° Northwest 179 206 13,900  Level Jacksonville Center
Fri 07:32:45 AM 28.3717 -82.2581 333° Northwest 179 206 13,900  Level Jacksonville Center
Fri 07:33:45 AM 28.4136 -82.2836 332° Northwest 179 206 13,900  Level Jacksonville Center
Fri 07:34:45 AM 28.4575 -82.3117 331° Northwest 179 206 13,900 50 Level Jacksonville Center
Fri 07:35:45 AM 28.4994 -82.3397 330° Northwest 179 206 14,000  Climbing Jacksonville Center
Fri 07:36:45 AM 28.5433 -82.3681 330° Northwest 179 206 13,900 -50 Descending Jacksonville Center
Fri 07:37:45 AM 28.5850 -82.3961 329° Northwest 179 206 13,900  Level Jacksonville Center
Fri 07:38:45 AM 28.6269 -82.4219 332° Northwest 179 206 13,900  Level Jacksonville Center
Fri 07:39:45 AM 28.6689 -82.4478 332° Northwest 174 200 13,900  Level Jacksonville Center
Fri 07:40:45 AM 28.7064 -82.4736 329° Northwest 169 194 13,900  Level Jacksonville Center
Fri 07:41:45 AM 28.7483 -82.5019 329° Northwest 169 194 13,900  Level Jacksonville Center
Fri 07:42:45 AM 28.7922 -82.5278 333° Northwest 169 194 13,900  Level Jacksonville Center
Fri 07:43:45 AM 28.8361 -82.5561 331° Northwest 169 194 13,900  Level Jacksonville Center
Fri 07:44:45 AM 28.8778 -82.5819 332° Northwest 174 200 13,900  Level Jacksonville Center
Fri 07:45:45 AM 28.9217 -82.6128 328° Northwest 174 200 13,900  Level Jacksonville Center
Fri 07:46:45 AM 28.9636 -82.6364 334° Northwest 174 200 13,900  Level Jacksonville Center
Fri 07:47:45 AM 29.0033 -82.6647 328° Northwest 174 200 13,900  Level Jacksonville Center
Fri 07:48:45 AM 29.0472 -82.6931 331° Northwest 169 194 13,900  Level Jacksonville Center
Fri 07:49:45 AM 29.0889 -82.7192 331° Northwest 169 194 13,900  Level Jacksonville Center
Fri 07:50:45 AM 29.1308 -82.7475 329° Northwest 169 194 13,900  Level Jacksonville Center
Fri 07:51:45 AM 29.1725 -82.7736 331° Northwest 164 189 13,900  Level Jacksonville Center
Fri 07:52:45 AM 29.2142 -82.7997 331° Northwest 164 189 13,900  Level Jacksonville Center
Fri 07:53:45 AM 29.2581 -82.8283 330° Northwest 164 189 13,900  Level Jacksonville Center
Fri 07:54:45 AM 29.2978 -82.8544 330° Northwest 164 189 13,900  Level Jacksonville Center
Fri 07:55:45 AM 29.3394 -82.8806 331° Northwest 164 189 13,900  Level Jacksonville Center
Fri 07:56:45 AM 29.3814 -82.9092 329° Northwest 164 189 13,900 50 Level Jacksonville Center
Fri 07:57:45 AM 29.4231 -82.9356 331° Northwest 164 189 14,000 300 Climbing Jacksonville Center
Fri 07:58:45 AM 29.4606 -82.9594 331° Northwest 164 189 14,500 350 Climbing Jacksonville Center
Fri 07:59:45 AM 29.5044 -82.9881 330° Northwest 164 189 14,700 250 Climbing Jacksonville Center
Fri 08:00:45 AM 29.5419 -83.0144 329° Northwest 167 192 15,000 300 Climbing Jacksonville Center
Fri 08:01:45 AM 29.5794 -83.0383 331° Northwest 157 181 15,300 350 Climbing Jacksonville Center
Fri 08:02:45 AM 29.6172 -83.0622 331° Northwest 164 189 15,700 300 Climbing Jacksonville Center
Fri 08:03:45 AM 29.6525 -83.0908 325° Northwest 164 189 15,900 100 Climbing Jacksonville Center
Fri 08:04:45 AM 29.6900 -83.1172 329° Northwest 159 183 15,900  Level Jacksonville Center
Fri 08:05:45 AM 29.7297 -83.1508 324° Northwest 164 189 15,900 50 Level Jacksonville Center
Fri 08:06:45 AM 29.7692 -83.1797 328° Northwest 172 198 16,000 50 Climbing Jacksonville Center
Fri 08:07:45 AM 29.8067 -83.2108 324° Northwest 172 198 16,000  Level Jacksonville Center
Fri 08:08:45 AM 29.8506 -83.2397 330° Northwest 172 198 16,000  Level Jacksonville Center
Fri 08:09:45 AM 29.8922 -83.2736 325° Northwest 172 198 16,000  Level Jacksonville Center
Fri 08:10:45 AM 29.9317 -83.3047 326° Northwest 172 198 16,000  Level Jacksonville Center
Fri 08:11:45 AM 29.9714 -83.3339 328° Northwest 172 198 16,000  Level Jacksonville Center
Fri 08:12:45 AM 30.0150 -83.3675 326° Northwest 177 204 16,000  Level Jacksonville Center
Fri 08:13:45 AM 30.0547 -83.3964 328° Northwest 177 204 16,000  Level Jacksonville Center
Fri 08:14:45 AM 30.0964 -83.4281 327° Northwest 177 204 16,000  Level Jacksonville Center
Fri 08:15:45 AM 30.1358 -83.4594 325° Northwest 177 204 16,000  Level Jacksonville Center
Fri 08:16:45 AM 30.1775 -83.4908 327° Northwest 177 204 16,000  Level Jacksonville Center
Fri 08:17:45 AM 30.2169 -83.5225 325° Northwest 177 204 16,000  Level Jacksonville Center
Fri 08:18:45 AM 30.2586 -83.5564 325° Northwest 177 204 16,000  Level Jacksonville Center
Fri 08:19:45 AM 30.2981 -83.5878 326° Northwest 177 204 16,000  Level Jacksonville Center
Fri 08:20:45 AM 30.3397 -83.6169 329° Northwest 177 204 16,000  Level Jacksonville Center
Fri 08:21:45 AM 30.3811 -83.6486 327° Northwest 177 204 16,000 -266 Level Jacksonville Center
Fri 08:27:09 AM 30.6084 -83.8264 326° Northwest 184 212 14,300 -320 Descending FlightAware ADS-B (KONZ)
Fri 08:27:41 AM 30.6309 -83.8439 326° Northwest 184 212 14,100 -189 Descending FlightAware ADS-B (KONZ)
Fri 08:29:48 AM 30.7194 -83.9131 326° Northwest 174 200 13,800 -114 Descending FlightAware ADS-B (KONZ)
Fri 08:30:19 AM 30.7397 -83.9290 326° Northwest 171 197 13,800  Level FlightAware ADS-B (KONZ)
Fri 08:31:16 AM 30.7770 -83.9584 326° Northwest 168 193 13,800  Level FlightAware ADS-B (KONZ)
Fri 08:32:26 AM 30.8223 -83.9939 326° Northwest 168 193 13,800 81 Level FlightAware ADS-B (KONZ)
Fri 08:33:45 AM 30.8711 -84.0325 326° Northwest 177 204 14,000 86 Climbing Jacksonville Center
Fri 08:34:45 AM 30.9083 -84.0644 324° Northwest 177 204 14,000  Level Jacksonville Center
Fri 08:35:45 AM 30.9458 -84.0917 328° Northwest 172 198 14,000  Level Jacksonville Center
Fri 08:36:45 AM 30.9850 -84.1236 325° Northwest 172 198 14,000  Level Jacksonville Center
Fri 08:37:45 AM 31.0244 -84.1556 325° Northwest 172 198 14,000  Level Jacksonville Center
Fri 08:38:45 AM 31.0617 -84.1853 326° Northwest 172 198 14,000  Level Jacksonville Center
Fri 08:39:45 AM 31.0950 -84.2100 328° Northwest 172 198 14,000 -150 Level Jacksonville Center
Fri 08:40:45 AM 31.1342 -84.2419 325° Northwest 172 198 13,700 -350 Descending Jacksonville Center
Fri 08:41:45 AM 31.1756 -84.2742 326° Northwest 172 198 13,300 -300 Descending Jacksonville Center
Fri 08:42:45 AM 31.2150 -84.3039 327° Northwest 172 198 13,100 -200 Descending Jacksonville Center
Fri 08:43:45 AM 31.2522 -84.3336 326° Northwest 172 198 12,900 -200 Descending Jacksonville Center
Fri 08:44:45 AM 31.2875 -84.3608 327° Northwest 167 192 12,700 -200 Descending Jacksonville Center
Fri 08:45:45 AM 31.3225 -84.3883 326° Northwest 167 192 12,500 -200 Descending Jacksonville Center
Fri 08:46:45 AM 31.3578 -84.4181 324° Northwest 162 186 12,300 -200 Descending Jacksonville Center
Fri 08:47:45 AM 31.3928 -84.4478 324° Northwest 156 180 12,100 -150 Descending Jacksonville Center
Fri 08:48:45 AM 31.4281 -84.4728 329° Northwest 151 174 12,000 -50 Descending Jacksonville Center
Fri 08:49:45 AM 31.4631 -84.5000 326° Northwest 146 168 12,000  Level Jacksonville Center
Fri 08:50:45 AM 31.4961 -84.5300 322° Northwest 151 174 12,000  Level Jacksonville Center
Fri 08:51:45 AM 31.5314 -84.5550 329° Northwest 151 174 12,000  Level Jacksonville Center
Fri 08:52:45 AM 31.5664 -84.5847 324° Northwest 151 174 12,000 -250 Level Jacksonville Center
Fri 08:53:45 AM 31.6036 -84.6122 328° Northwest 151 174 11,500 -500 Descending Jacksonville Center
Fri 08:54:45 AM 31.6408 -84.6447 323° Northwest 151 174 11,000 -500 Descending Jacksonville Center
Fri 08:55:45 AM 31.6758 -84.6722 326° Northwest 156 180 10,500 -500 Descending Jacksonville Center
Fri 08:56:45 AM 31.7131 -84.7022 326° Northwest 156 180 10,000 -526 Descending Jacksonville Center
Fri 08:58:59 AM 31.7833 -84.7667 322° Northwest 141 162 8,800 -526 Descending Atlanta TRACON
Fri 08:59:59 AM 31.8333 -84.7833 344° North 143 165 8,300 -400 Descending Atlanta TRACON
Fri 09:00:59 AM 31.8500 -84.8167 300° West 144 166 8,000 -150 Descending Atlanta TRACON
Fri 09:01:59 AM 31.8833 -84.8333 337° Northwest 133 153 8,000  Level Atlanta TRACON
Fri 09:03:05 AM 31.9167 -84.8667 320° Northwest 132 152 8,000  Level Atlanta TRACON
Fri 09:04:05 AM 31.9500 -84.9000 320° Northwest 134 154 8,000 -150 Level Atlanta TRACON
Fri 09:05:05 AM 31.9833 -84.9167 337° Northwest 138 159 7,700 -421 Descending Atlanta TRACON
Fri 09:05:59 AM 32.0167 -84.9500 320° Northwest 149 171 7,200 -579 Descending Atlanta TRACON
Fri 09:06:59 AM 32.0500 -84.9667 337° Northwest 154 177 6,600 -571 Descending Atlanta TRACON
Fri 09:08:05 AM 32.0833 -85.0000 320° Northwest 157 181 6,000 -300 Descending Atlanta TRACON
Fri 09:08:59 AM 32.1167 -85.0333 320° Northwest 142 163 6,000  Level Atlanta TRACON
Fri 09:09:59 AM 32.1500 -85.0500 337° Northwest 136 157 6,000  Level Atlanta TRACON
Fri 09:10:59 AM 32.1833 -85.0833 320° Northwest 138 159 6,000  Level Atlanta TRACON
Fri 09:11:59 AM 32.2167 -85.1000 337° Northwest 139 160 6,000  Level Atlanta TRACON
Fri 09:12:59 AM 32.2500 -85.1333 320° Northwest 137 158 6,000 -50 Level Atlanta TRACON
Fri 09:13:59 AM 32.2667 -85.1500 320° Northwest 139 160 5,900 -300 Descending Atlanta TRACON
Fri 09:14:59 AM 32.3000 -85.1833 320° Northwest 156 180 5,400 -500 Descending Atlanta TRACON
Fri 09:15:59 AM 32.3500 -85.2167 331° Northwest 152 175 4,900 -500 Descending Atlanta TRACON
Fri 09:16:59 AM 32.3833 -85.2333 337° Northwest 152 175 4,400 -550 Descending Atlanta TRACON
Fri 09:17:59 AM 32.4167 -85.2667 320° Northwest 153 176 3,800 -524 Descending Atlanta TRACON
Fri 09:19:05 AM 32.4500 -85.3000 320° Northwest 153 176 3,300 -500 Descending Atlanta TRACON
Fri 09:19:59 AM 32.4833 -85.3167 337° Northwest 158 182 2,800 -842 Descending Atlanta TRACON
Fri 09:20:59 AM 32.5167 -85.3500 320° Northwest 137 158 1,700 -1,100 Descending Atlanta TRACON

Login

Don't have an account? Register now (free) for customized features, flight alerts, and more!